Time;durP1;ratioP1;P1;durP2;ratioP2;P2;SDS_P1;SDS_P2;PMS_P1;PMS_P2;Temp;Humidity;BMP_temperature;BMP_pressure;BME280_temperature;BME280_humidity;BME280_pressure;Samples;Min_cycle;Max_cycle;Signal;HPM_P1;HPM_P2
2021/08/29 00:02:06;;;;;;;1.20;1.00;;;;;;;17.28;100.00;96734.50;5055047;28;20036;-76
2021/08/29 00:04:31;;;;;;;6.03;1.23;;;;;;;17.20;100.00;96722.75;5073907;28;20111;-76
2021/08/29 00:06:57;;;;;;;1.33;0.77;;;;;;;17.11;100.00;96716.44;5053588;28;20069;-76
2021/08/29 00:09:22;;;;;;;1.75;1.30;;;;;;;17.13;100.00;96732.50;5073652;28;20032;-77
2021/08/29 00:11:48;;;;;;;1.85;1.60;;;;;;;17.16;100.00;96724.94;5038953;28;20600;-76
2021/08/29 00:14:14;;;;;;;2.13;0.93;;;;;;;17.20;100.00;96731.72;5073777;28;20497;-76
2021/08/29 00:16:39;;;;;;;1.63;1.23;;;;;;;17.20;100.00;96725.47;5073416;28;20024;-76
2021/08/29 00:19:05;;;;;;;2.65;1.17;;;;;;;17.07;100.00;96703.41;5073356;28;20411;-76
2021/08/29 00:21:30;;;;;;;6.95;1.77;;;;;;;17.21;100.00;96724.47;5055283;28;20028;-77
2021/08/29 00:23:56;;;;;;;0.77;0.65;;;;;;;17.18;100.00;96735.59;5055470;28;20036;-76
2021/08/29 00:26:21;;;;;;;1.83;1.20;;;;;;;17.23;100.00;96735.97;5052161;28;20048;-77
2021/08/29 00:28:47;;;;;;;1.90;1.08;;;;;;;17.15;100.00;96719.69;5052594;28;20119;-77
2021/08/29 00:31:12;;;;;;;1.55;0.75;;;;;;;17.23;100.00;96723.28;5073322;28;20029;-76
2021/08/29 00:33:38;;;;;;;1.05;0.88;;;;;;;17.32;100.00;96733.16;5073077;28;20050;-77
2021/08/29 00:36:04;;;;;;;2.75;1.60;;;;;;;17.35;100.00;96734.72;5072844;28;20028;-77
2021/08/29 00:38:29;;;;;;;2.40;1.20;;;;;;;17.37;100.00;96727.31;5073089;28;20028;-77
2021/08/29 00:40:55;;;;;;;3.45;1.35;;;;;;;17.38;100.00;96728.16;5054832;28;20132;-76
2021/08/29 00:43:24;;;;;;;2.08;1.70;;;;;;;17.34;100.00;96716.81;5054840;28;20412;-76
2021/08/29 00:45:54;;;;;;;1.02;1.02;;;;;;;17.35;100.00;96715.78;5051676;28;20036;-77
2021/08/29 00:48:20;;;;;;;0.88;0.88;;;;;;;17.30;100.00;96716.28;5046947;28;20377;-77
2021/08/29 00:50:46;;;;;;;3.53;1.60;;;;;;;17.26;100.00;96703.22;5041029;28;20027;-76
2021/08/29 00:53:14;;;;;;;1.35;1.05;;;;;;;17.31;100.00;96706.31;5072551;28;20025;-77
2021/08/29 00:55:40;;;;;;;1.55;0.95;;;;;;;17.30;100.00;96707.31;5055055;28;20498;-76
2021/08/29 00:58:06;;;;;;;2.42;0.82;;;;;;;17.28;100.00;96706.63;5038057;28;20037;-77
2021/08/29 01:00:40;;;;;;;2.05;1.45;;;;;;;17.17;100.00;96714.97;5054995;28;20012;-76
2021/08/29 01:03:08;;;;;;;2.15;0.98;;;;;;;17.17;100.00;96699.59;5072563;28;20024;-77
2021/08/29 01:05:47;;;;;;;1.98;1.48;;;;;;;17.17;100.00;96704.16;5051319;28;20501;-77
2021/08/29 01:08:15;;;;;;;2.22;1.98;;;;;;;17.10;100.00;96671.50;5056790;28;20036;-77
2021/08/29 01:10:46;;;;;;;1.48;1.38;;;;;;;17.26;100.00;96700.50;5054742;28;20036;-77
2021/08/29 01:13:25;;;;;;;2.75;2.15;;;;;;;17.22;100.00;96685.63;5053702;28;20032;-77
2021/08/29 01:15:53;;;;;;;15.02;2.58;;;;;;;17.33;100.00;96702.44;5054955;28;20028;-77
2021/08/29 01:18:20;;;;;;;3.05;1.40;;;;;;;17.30;100.00;96693.78;5034584;28;20082;-77
2021/08/29 01:20:51;;;;;;;2.67;1.67;;;;;;;17.44;100.00;96701.34;5055147;28;20494;-77
2021/08/29 01:23:19;;;;;;;1.85;1.45;;;;;;;17.48;100.00;96705.41;5054039;28;20563;-77
2021/08/29 01:25:55;;;;;;;2.58;1.25;;;;;;;17.35;100.00;96686.03;5054660;28;20404;-77
2021/08/29 01:28:24;;;;;;;2.25;1.02;;;;;;;17.38;100.00;96696.53;5036756;28;20548;-77
2021/08/29 01:30:50;;;;;;;14.32;3.30;;;;;;;17.28;100.00;96693.09;5054172;28;20024;-77
2021/08/29 01:33:16;;;;;;;2.97;1.10;;;;;;;17.29;100.00;96695.63;5053580;28;20107;-77
2021/08/29 01:35:42;;;;;;;1.70;1.00;;;;;;;17.32;100.00;96689.06;5050774;28;20033;-77
2021/08/29 01:38:09;;;;;;;2.55;1.50;;;;;;;17.30;100.00;96688.38;5048400;28;20060;-77
2021/08/29 01:40:35;;;;;;;2.00;1.80;;;;;;;17.30;100.00;96682.97;5049125;28;20041;-77
2021/08/29 01:43:01;;;;;;;1.33;1.15;;;;;;;17.29;100.00;96681.25;5042435;28;20029;-77
2021/08/29 01:45:27;;;;;;;4.35;0.93;;;;;;;17.33;100.00;96694.31;5037551;28;20066;-77
2021/08/29 01:47:57;;;;;;;1.45;1.30;;;;;;;17.34;100.00;96706.00;5072153;28;20033;-77
2021/08/29 01:50:23;;;;;;;2.92;1.17;;;;;;;17.34;100.00;96708.69;5054036;28;20388;-78
2021/08/29 01:52:48;;;;;;;0.77;0.77;;;;;;;17.39;100.00;96705.50;5054052;28;20453;-77
2021/08/29 01:55:14;;;;;;;0.93;0.85;;;;;;;17.28;100.00;96706.63;5071719;28;20028;-77
2021/08/29 01:57:39;;;;;;;0.82;0.82;;;;;;;17.21;100.00;96710.94;5034120;28;20063;-77
2021/08/29 02:00:08;;;;;;;3.30;1.75;;;;;;;17.35;100.00;96732.00;5034046;28;20021;-76
2021/08/29 02:02:33;;;;;;;1.30;0.75;;;;;;;17.42;100.00;96746.59;5053175;28;20036;-77
2021/08/29 02:04:59;;;;;;;8.02;1.20;;;;;;;17.26;100.00;96731.09;5050198;28;20408;-77
2021/08/29 02:07:33;;;;;;;0.82;0.75;;;;;;;17.21;100.00;96755.06;5052891;28;20024;-77
2021/08/29 02:10:07;;;;;;;2.17;1.67;;;;;;;17.22;100.00;96756.75;5033727;28;20032;-77
2021/08/29 02:12:38;;;;;;;1.52;0.93;;;;;;;17.24;100.00;96751.19;5070728;28;20517;-77
2021/08/29 02:15:08;;;;;;;2.58;1.17;;;;;;;17.37;100.00;96758.91;5050527;28;20088;-78
2021/08/29 02:17:34;;;;;;;0.98;0.85;;;;;;;17.25;100.00;96750.19;5036937;28;20016;-77
2021/08/29 02:20:04;;;;;;;2.17;0.95;;;;;;;17.32;100.00;96767.47;5053646;28;20028;-78
2021/08/29 02:22:32;;;;;;;2.75;1.27;;;;;;;17.23;100.00;96765.69;5053221;28;20020;-76
2021/08/29 02:24:57;;;;;;;13.27;3.10;;;;;;;17.31;100.00;96773.91;5050743;28;20017;-76
2021/08/29 02:27:23;;;;;;;2.30;1.30;;;;;;;17.27;100.00;96767.09;5050752;28;20510;-76
2021/08/29 02:29:49;;;;;;;1.50;1.40;;;;;;;17.26;100.00;96758.13;5053765;28;20032;-76
2021/08/29 02:32:16;;;;;;;4.43;1.90;;;;;;;17.26;100.00;96762.66;5051287;28;20021;-76
2021/08/29 02:34:42;;;;;;;2.75;1.58;;;;;;;17.33;100.00;96774.56;5053241;28;20094;-76
2021/08/29 02:37:10;;;;;;;4.65;1.63;;;;;;;17.33;100.00;96767.31;5053411;28;20369;-76
2021/08/29 02:39:36;;;;;;;1.25;1.15;;;;;;;17.37;100.00;96770.56;5036422;28;20402;-77
2021/08/29 02:42:03;;;;;;;0.77;0.70;;;;;;;17.26;100.00;96751.88;5050023;28;20025;-76
2021/08/29 02:44:29;;;;;;;4.13;1.10;;;;;;;17.37;100.00;96764.31;5052185;28;20063;-77
2021/08/29 02:46:54;;;;;;;2.50;1.30;;;;;;;17.46;100.00;96780.44;5057566;28;20028;-77
2021/08/29 02:49:21;;;;;;;0.85;0.65;;;;;;;17.49;100.00;96777.44;5057340;28;20048;-77
2021/08/29 02:51:49;;;;;;;1.48;1.30;;;;;;;17.47;100.00;96770.47;5057380;28;20029;-76
2021/08/29 02:54:15;;;;;;;2.33;0.75;;;;;;;17.49;100.00;96787.38;5057339;28;20154;-76
2021/08/29 02:56:42;;;;;;;1.63;1.05;;;;;;;17.68;100.00;96804.31;5057136;28;20526;-77
2021/08/29 02:59:08;;;;;;;3.00;1.38;;;;;;;17.77;100.00;96800.69;5057482;28;20028;-77
2021/08/29 03:01:34;;;;;;;1.63;0.88;;;;;;;17.76;100.00;96787.28;5035530;28;20029;-76
2021/08/29 03:04:00;;;;;;;1.55;0.85;;;;;;;17.80;100.00;96784.13;5048123;28;20032;-76
2021/08/29 03:06:26;;;;;;;1.05;0.80;;;;;;;17.76;100.00;96752.13;5038375;28;20506;-77
2021/08/29 03:08:51;;;;;;;3.30;1.23;;;;;;;17.86;100.00;96756.44;5056751;28;20032;-77
2021/08/29 03:11:19;;;;;;;1.80;1.08;;;;;;;17.90;100.00;96756.13;5053781;28;20075;-77
2021/08/29 03:13:44;;;;;;;2.05;1.02;;;;;;;17.98;100.00;96780.50;5046330;28;20029;-76
2021/08/29 03:16:11;;;;;;;1.30;1.10;;;;;;;18.13;100.00;96792.44;5056713;28;20044;-77
2021/08/29 03:18:37;;;;;;;2.72;0.90;;;;;;;18.12;100.00;96793.47;5055384;28;20489;-77
2021/08/29 03:21:02;;;;;;;1.23;0.85;;;;;;;18.17;100.00;96788.41;5053710;28;20024;-76
2021/08/29 03:23:28;;;;;;;8.88;1.10;;;;;;;18.11;100.00;96787.22;5053913;28;20373;-77
2021/08/29 03:25:54;;;;;;;1.02;0.70;;;;;;;18.12;100.00;96782.66;5056451;28;20399;-77
2021/08/29 03:28:20;;;;;;;0.65;0.55;;;;;;;18.23;100.00;96790.47;5056755;28;20028;-76
2021/08/29 03:30:46;;;;;;;0.98;0.80;;;;;;;18.26;100.00;96799.13;5055959;28;20027;-76
2021/08/29 03:33:13;;;;;;;4.70;1.45;;;;;;;18.26;100.00;96795.56;5040076;28;20052;-77
2021/08/29 03:35:39;;;;;;;3.80;2.05;;;;;;;18.27;100.00;96800.00;5053676;28;20094;-77
2021/08/29 03:38:05;;;;;;;8.48;1.40;;;;;;;18.19;100.00;96789.09;5074136;28;20040;-77
2021/08/29 03:40:30;;;;;;;3.70;1.38;;;;;;;18.22;100.00;96794.19;5053404;28;20041;-77
2021/08/29 03:42:56;;;;;;;1.10;1.00;;;;;;;18.19;100.00;96798.06;5053113;28;20526;-77
2021/08/29 03:45:22;;;;;;;2.35;1.33;;;;;;;18.15;100.00;96787.75;5051190;28;20082;-75
2021/08/29 03:47:47;;;;;;;0.95;0.95;;;;;;;18.11;100.00;96791.78;5073532;28;20499;-76
2021/08/29 03:50:13;;;;;;;1.55;0.63;;;;;;;18.13;100.00;96782.47;5036003;28;20500;-76
2021/08/29 03:52:39;;;;;;;0.77;0.77;;;;;;;18.07;100.00;96774.13;5050892;28;20093;-76
2021/08/29 03:55:06;;;;;;;3.28;1.75;;;;;;;18.07;100.00;96775.00;5052689;28;20033;-76
2021/08/29 03:57:32;;;;;;;0.88;0.82;;;;;;;18.09;100.00;96764.84;5048173;28;20032;-76
2021/08/29 03:59:58;;;;;;;8.85;2.50;;;;;;;18.16;100.00;96774.03;5055240;28;20142;-76
2021/08/29 04:02:24;;;;;;;5.45;1.48;;;;;;;18.18;100.00;96779.31;5073842;28;20050;-76
2021/08/29 04:04:50;;;;;;;2.47;1.85;;;;;;;18.16;100.00;96792.13;5057193;28;21132;-75
2021/08/29 04:07:16;;;;;;;2.08;1.88;;;;;;;18.23;100.00;96818.41;5073405;28;20039;-75
2021/08/29 04:09:42;;;;;;;1.27;1.17;;;;;;;18.27;100.00;96867.69;5051979;28;20123;-75
2021/08/29 04:12:08;;;;;;;1.10;1.00;;;;;;;18.17;100.00;96910.25;5052214;28;20036;-75
2021/08/29 04:14:34;;;;;;;2.88;1.52;;;;;;;18.05;100.00;96928.59;5069879;28;20462;-75
2021/08/29 04:17:00;;;;;;;2.00;1.52;;;;;;;17.90;100.00;96908.50;5055388;28;20025;-73
2021/08/29 04:19:26;;;;;;;0.55;0.55;;;;;;;17.64;100.00;96848.06;5055184;28;20027;-74
2021/08/29 04:21:53;;;;;;;0.40;0.40;;;;;;;17.46;100.00;96780.44;5393688;23;20054;-76
2021/08/29 04:24:18;;;;;;;0.88;0.68;;;;;;;17.46;100.00;96737.19;5050187;28;20260;-76
2021/08/29 04:26:44;;;;;;;1.02;0.90;;;;;;;17.54;100.00;96753.44;5051774;28;20021;-76
2021/08/29 04:29:10;;;;;;;1.10;0.45;;;;;;;17.30;100.00;96769.47;5068468;28;20029;-76
2021/08/29 04:31:36;;;;;;;0.38;0.32;;;;;;;16.98;100.00;96777.28;5051446;28;20426;-76
2021/08/29 04:34:04;;;;;;;0.45;0.45;;;;;;;16.86;100.00;96792.84;5051813;28;20103;-76
2021/08/29 04:36:30;;;;;;;0.40;0.40;;;;;;;16.83;100.00;96768.84;5034706;28;20039;-76
2021/08/29 04:39:06;;;;;;;0.20;0.20;;;;;;;16.77;100.00;96743.28;5051599;28;20163;-76
2021/08/29 04:41:31;;;;;;;0.40;0.40;;;;;;;16.72;100.00;96745.63;5049588;28;20021;-76
2021/08/29 04:43:57;;;;;;;0.10;0.10;;;;;;;16.87;100.00;96747.78;5048314;28;20021;-76
2021/08/29 04:46:23;;;;;;;0.25;0.20;;;;;;;17.02;100.00;96754.34;5049566;28;20400;-76
2021/08/29 04:48:48;;;;;;;1.17;1.08;;;;;;;17.04;100.00;96760.47;5052865;28;20025;-76
2021/08/29 04:51:14;;;;;;;1.40;0.75;;;;;;;17.15;100.00;96769.19;5051226;28;20040;-77
2021/08/29 04:53:39;;;;;;;0.70;0.50;;;;;;;17.23;100.00;96768.38;5051147;28;20029;-77
2021/08/29 04:56:05;;;;;;;0.73;0.70;;;;;;;17.28;100.00;96779.59;5052475;28;20032;-77
2021/08/29 04:58:30;;;;;;;1.52;1.13;;;;;;;17.22;100.00;96781.09;5050966;28;20029;-76
2021/08/29 05:00:56;;;;;;;0.75;0.73;;;;;;;17.29;100.00;96794.81;5052223;28;20039;-76
2021/08/29 05:03:21;;;;;;;5.05;0.70;;;;;;;17.36;100.00;96795.88;5051177;28;20092;-77
2021/08/29 05:05:47;;;;;;;0.47;0.30;;;;;;;17.44;100.00;96792.44;5051974;28;20029;-77
2021/08/29 05:08:12;;;;;;;0.68;0.50;;;;;;;17.52;100.00;96793.34;5051694;28;20025;-75
2021/08/29 05:10:38;;;;;;;0.95;0.88;;;;;;;17.66;100.00;96813.56;5033901;28;20022;-75
2021/08/29 05:13:03;;;;;;;1.13;0.77;;;;;;;17.76;100.00;96815.19;5047771;28;20033;-75
2021/08/29 05:15:29;;;;;;;0.93;0.80;;;;;;;17.77;100.00;96816.91;5047766;28;20035;-75
2021/08/29 05:17:55;;;;;;;1.30;0.85;;;;;;;17.75;100.00;96799.09;5050883;28;20033;-75
2021/08/29 05:20:20;;;;;;;0.20;0.20;;;;;;;18.02;100.00;96817.94;5050767;28;20075;-77
2021/08/29 05:22:46;;;;;;;6.28;0.95;;;;;;;18.27;100.00;96818.94;5065948;28;20110;-75
2021/08/29 05:25:11;;;;;;;0.55;0.47;;;;;;;18.49;100.00;96818.41;5050798;28;20029;-76
2021/08/29 05:27:37;;;;;;;1.08;0.52;;;;;;;18.43;100.00;96827.13;5069767;28;20462;-75
2021/08/29 05:30:02;;;;;;;1.00;0.85;;;;;;;18.36;100.00;96826.94;5054043;28;20411;-75
2021/08/29 05:32:28;;;;;;;2.78;1.77;;;;;;;18.32;100.00;96827.44;5050674;28;20522;-76
2021/08/29 05:34:53;;;;;;;1.33;0.60;;;;;;;18.27;100.00;96836.00;5041987;28;20040;-76
2021/08/29 05:37:19;;;;;;;1.00;0.90;;;;;;;18.17;100.00;96807.38;5049273;28;20024;-76
2021/08/29 05:39:44;;;;;;;4.47;1.67;;;;;;;18.27;100.00;96827.06;5053490;28;20530;-76
2021/08/29 05:42:10;;;;;;;0.57;0.57;;;;;;;18.05;100.00;96819.47;5071719;28;20103;-76
2021/08/29 05:44:35;;;;;;;1.63;0.80;;;;;;;17.99;100.00;96815.56;5054181;28;20403;-76
2021/08/29 05:47:01;;;;;;;0.73;0.60;;;;;;;18.15;100.00;96837.28;5071859;28;20509;-76
2021/08/29 05:49:26;;;;;;;3.22;1.38;;;;;;;18.25;100.00;96815.53;5071805;28;20021;-76
2021/08/29 05:51:52;;;;;;;0.40;0.40;;;;;;;18.29;100.00;96811.50;5071419;28;20024;-76
2021/08/29 05:54:17;;;;;;;2.53;1.20;;;;;;;18.39;100.00;96831.19;5053946;28;20549;-76
2021/08/29 05:56:43;;;;;;;0.70;0.65;;;;;;;18.44;100.00;96826.13;5071513;28;20506;-76
2021/08/29 05:59:09;;;;;;;1.13;0.98;;;;;;;18.51;100.00;96832.66;5053719;28;20050;-76
2021/08/29 06:01:35;;;;;;;0.98;0.57;;;;;;;18.55;100.00;96822.34;5053442;28;20024;-76
2021/08/29 06:04:00;;;;;;;0.75;0.75;;;;;;;18.56;100.00;96800.50;5053550;28;20099;-76
2021/08/29 06:06:27;;;;;;;0.88;0.68;;;;;;;18.68;100.00;96795.63;5053537;28;20031;-76
2021/08/29 06:09:09;;;;;;;1.88;0.65;;;;;;;18.64;100.00;96778.03;5049759;28;20040;-78
2021/08/29 06:11:36;;;;;;;1.30;1.20;;;;;;;18.85;100.00;96787.41;5038792;28;20067;-78
2021/08/29 06:14:07;;;;;;;0.30;0.30;;;;;;;19.12;100.00;96809.84;5052869;28;20039;-82
2021/08/29 06:16:39;;;;;;;1.83;1.63;;;;;;;18.99;100.00;96798.59;5053736;28;20046;-78
2021/08/29 06:19:05;;;;;;;2.72;1.67;;;;;;;19.28;100.00;96809.88;5053722;28;20487;-78
2021/08/29 06:21:30;;;;;;;2.17;1.55;;;;;;;19.55;100.00;96811.47;5070725;28;20063;-77
2021/08/29 06:23:56;;;;;;;9.23;4.22;;;;;;;19.88;100.00;96816.72;5036176;28;20021;-77
2021/08/29 06:26:21;;;;;;;2.67;1.35;;;;;;;20.11;100.00;96806.03;5037898;28;20402;-77
2021/08/29 06:28:47;;;;;;;1.83;1.25;;;;;;;20.54;100.00;96837.38;5073279;28;20043;-85
2021/08/29 06:31:12;;;;;;;0.20;0.20;;;;;;;20.47;100.00;96831.78;5071229;28;20028;-80
2021/08/29 06:33:38;;;;;;;2.92;0.98;;;;;;;20.54;100.00;96829.22;5033629;28;20125;-80
2021/08/29 06:36:04;;;;;;;2.20;0.95;;;;;;;20.40;100.00;96821.75;5050421;28;20028;-76
2021/08/29 06:38:29;;;;;;;8.70;4.50;;;;;;;20.39;100.00;96825.53;5050212;28;20545;-76
2021/08/29 06:40:55;;;;;;;6.10;1.35;;;;;;;20.32;100.00;96832.66;5068791;28;20029;-76
2021/08/29 06:43:20;;;;;;;1.33;0.85;;;;;;;20.29;100.00;96827.56;5068123;28;20082;-76
2021/08/29 06:45:46;;;;;;;0.60;0.60;;;;;;;20.22;100.00;96823.81;5033188;28;20036;-76
2021/08/29 06:48:11;;;;;;;6.57;1.42;;;;;;;20.28;100.00;96836.72;5030398;28;20039;-76
2021/08/29 06:50:37;;;;;;;2.38;0.80;;;;;;;20.24;100.00;96829.94;5067863;28;20028;-77
2021/08/29 06:53:02;;;;;;;1.30;0.57;;;;;;;20.18;100.00;96836.06;5049957;28;20032;-77
2021/08/29 06:55:28;;;;;;;1.23;0.63;;;;;;;20.11;100.00;96829.59;5048894;28;20029;-77
2021/08/29 06:57:53;;;;;;;0.75;0.57;;;;;;;20.10;100.00;96827.91;5068313;28;20032;-77
2021/08/29 07:00:19;;;;;;;8.18;0.93;;;;;;;20.03;100.00;96822.31;5047665;28;20460;-77
2021/08/29 07:02:44;;;;;;;6.10;3.30;;;;;;;20.11;100.00;96829.59;5047172;28;20033;-77
2021/08/29 07:05:10;;;;;;;1.38;0.63;;;;;;;20.16;100.00;96827.22;5050265;28;20377;-77
2021/08/29 07:07:35;;;;;;;1.90;0.68;;;;;;;20.01;100.00;96813.50;5049681;28;20103;-78
2021/08/29 07:10:01;;;;;;;0.50;0.45;;;;;;;19.92;100.00;96809.09;5033053;28;20121;-77
2021/08/29 07:12:27;;;;;;;6.07;0.73;;;;;;;19.48;100.00;96817.56;5033573;28;20471;-77
2021/08/29 07:14:52;;;;;;;0.85;0.65;;;;;;;19.41;100.00;96823.84;5047662;28;20116;-76
2021/08/29 07:17:18;;;;;;;0.82;0.68;;;;;;;19.29;100.00;96816.97;5046653;28;20040;-76
2021/08/29 07:19:47;;;;;;;0.52;0.30;;;;;;;19.43;100.00;96816.38;5049975;28;20040;-77
2021/08/29 07:22:12;;;;;;;1.42;0.68;;;;;;;19.42;100.00;96825.50;5049609;28;20444;-77
2021/08/29 07:24:38;;;;;;;1.65;1.15;;;;;;;19.65;100.00;96840.13;5049912;28;20037;-76
2021/08/29 07:27:04;;;;;;;1.55;0.93;;;;;;;19.71;100.00;96817.75;5065102;28;20522;-77
2021/08/29 07:29:31;;;;;;;0.77;0.68;;;;;;;19.99;100.00;96826.41;5049548;28;20056;-75
2021/08/29 07:31:56;;;;;;;0.52;0.20;;;;;;;20.13;100.00;96822.13;5050386;28;20044;-75
2021/08/29 07:34:22;;;;;;;0.55;0.52;;;;;;;20.21;100.00;96819.41;5050240;28;20040;-77
2021/08/29 07:36:47;;;;;;;0.80;0.52;;;;;;;20.17;100.00;96818.06;5049970;28;20487;-75
2021/08/29 07:39:13;;;;;;;0.60;0.60;;;;;;;20.19;100.00;96808.72;5052411;28;20058;-75
2021/08/29 07:41:38;;;;;;;3.80;1.05;;;;;;;20.24;100.00;96805.50;5071132;28;20059;-77
2021/08/29 07:44:04;;;;;;;1.45;0.75;;;;;;;20.30;100.00;96815.69;5052855;28;20052;-77
2021/08/29 07:46:30;;;;;;;0.63;0.20;;;;;;;20.16;100.00;96795.47;5071220;28;20123;-76
2021/08/29 07:48:56;;;;;;;0.60;0.55;;;;;;;20.11;100.00;96797.03;5050363;28;20068;-77
2021/08/29 07:51:22;;;;;;;0.57;0.50;;;;;;;20.12;100.00;96826.69;5052861;28;20486;-75
2021/08/29 07:53:47;;;;;;;2.58;1.08;;;;;;;20.17;100.00;96821.63;5052662;28;20065;-75
2021/08/29 07:56:13;;;;;;;0.40;0.40;;;;;;;20.36;100.00;96795.97;5052698;28;20038;-76
2021/08/29 07:58:38;;;;;;;0.20;0.20;;;;;;;20.49;100.00;96799.84;5070872;28;20063;-77
2021/08/29 08:01:04;;;;;;;1.80;0.85;;;;;;;20.68;100.00;96806.72;5070599;28;20111;-77
2021/08/29 08:03:30;;;;;;;0.40;0.40;;;;;;;20.80;100.00;96801.75;5050075;28;20639;-76
2021/08/29 08:05:55;;;;;;;0.70;0.30;;;;;;;20.96;100.00;96810.69;5052833;28;20115;-76
2021/08/29 08:08:21;;;;;;;0.40;0.40;;;;;;;20.98;100.00;96816.78;5052498;28;20028;-75
2021/08/29 08:10:46;;;;;;;0.40;0.22;;;;;;;20.96;100.00;96805.25;5070475;28;20028;-76
2021/08/29 08:13:12;;;;;;;0.35;0.35;;;;;;;21.37;100.00;96810.50;5070854;28;20116;-77
2021/08/29 08:15:38;;;;;;;0.52;0.52;;;;;;;22.03;100.00;96824.31;5070190;28;20135;-77
2021/08/29 08:18:04;;;;;;;0.20;0.20;;;;;;;22.69;89.95;96839.00;5023353;28;20029;-77
2021/08/29 08:20:29;;;;;;;0.28;0.22;;;;;;;22.84;89.69;96823.50;5046786;28;20115;-79
2021/08/29 08:22:55;;;;;;;0.28;0.28;;;;;;;23.03;85.31;96827.53;5052200;28;20466;-78
2021/08/29 08:25:20;;;;;;;0.55;0.20;;;;;;;23.24;87.00;96833.03;5070003;28;20032;-78
2021/08/29 08:27:46;;;;;;;0.10;0.10;;;;;;;23.06;90.42;96814.34;5053953;28;20024;-74
2021/08/29 08:30:12;;;;;;;0.30;0.20;;;;;;;22.82;92.52;96814.66;5035597;28;20087;-78
2021/08/29 08:32:38;;;;;;;0.20;0.20;;;;;;;22.86;91.98;96818.69;5035455;28;20032;-80
2021/08/29 08:35:04;;;;;;;0.13;0.13;;;;;;;22.76;90.73;96806.38;5071543;28;20032;-77
2021/08/29 08:37:29;;;;;;;1.58;0.90;;;;;;;22.35;92.63;96795.91;5051833;28;20036;-77
2021/08/29 08:39:55;;;;;;;1.38;1.23;;;;;;;22.54;93.94;96789.91;5053372;28;20415;-82
2021/08/29 08:42:20;;;;;;;1.15;0.93;;;;;;;22.80;93.06;96813.13;5034946;28;20127;-83
2021/08/29 08:44:47;;;;;;;0.65;0.63;;;;;;;22.34;91.16;96793.34;5053351;28;20131;-81
2021/08/29 08:47:16;;;;;;;0.50;0.50;;;;;;;22.59;91.51;96822.03;5054323;28;20025;-75
2021/08/29 08:49:43;;;;;;;0.25;0.25;;;;;;;22.93;86.53;96816.03;5055219;28;20120;-76
2021/08/29 08:52:15;;;;;;;0.40;0.40;;;;;;;22.83;89.81;96829.97;5054813;28;20028;-75
2021/08/29 08:54:42;;;;;;;0.30;0.30;;;;;;;22.78;88.59;96826.13;5055513;28;20028;-76
2021/08/29 08:57:08;;;;;;;0.52;0.52;;;;;;;22.78;91.41;96810.59;5064656;28;20510;-77
2021/08/29 08:59:35;;;;;;;2.08;1.27;;;;;;;22.58;90.42;96814.88;5051669;28;20029;-76
2021/08/29 09:02:00;;;;;;;0.93;0.63;;;;;;;22.50;92.86;96815.00;5058015;28;20029;-76
2021/08/29 09:04:26;;;;;;;0.35;0.32;;;;;;;22.27;92.95;96819.66;5042647;28;20511;-77
2021/08/29 09:06:51;;;;;;;2.83;1.02;;;;;;;22.36;95.29;96821.28;5058964;28;20418;-77
2021/08/29 09:09:17;;;;;;;0.60;0.60;;;;;;;22.86;94.70;96826.00;5052713;28;20535;-76
2021/08/29 09:11:43;;;;;;;0.32;0.32;;;;;;;23.16;92.21;96819.50;5069885;28;20025;-76
2021/08/29 09:14:09;;;;;;;4.22;2.42;;;;;;;23.47;94.49;96811.09;5053907;28;20251;-76
2021/08/29 09:16:34;;;;;;;1.02;0.77;;;;;;;23.55;92.22;96817.28;5054132;28;20055;-77
2021/08/29 09:19:02;;;;;;;1.65;1.38;;;;;;;23.82;89.24;96825.72;5076738;28;20032;-75
2021/08/29 09:21:34;;;;;;;0.28;0.28;;;;;;;24.09;81.67;96819.47;5061245;28;20040;-77
2021/08/29 09:24:06;;;;;;;1.80;1.23;;;;;;;24.00;79.59;96815.16;5054428;28;20028;-77
2021/08/29 09:26:32;;;;;;;0.10;0.10;;;;;;;24.34;76.41;96818.03;5056270;28;20036;-77
2021/08/29 09:28:59;;;;;;;0.57;0.22;;;;;;;25.54;69.76;96813.03;5055295;28;20083;-77
2021/08/29 09:31:44;;;;;;;0.47;0.47;;;;;;;27.43;66.25;96812.16;5053622;28;20032;-77
2021/08/29 09:34:10;;;;;;;0.15;0.15;;;;;;;28.02;62.29;96808.22;5035693;28;20123;-75
2021/08/29 09:36:38;;;;;;;0.10;0.10;;;;;;;28.13;64.28;96807.50;5051221;28;20119;-76
2021/08/29 09:39:20;;;;;;;0.38;0.38;;;;;;;27.59;66.17;96827.31;5036778;28;20127;-80
2021/08/29 09:41:46;;;;;;;0.60;0.60;;;;;;;26.81;68.17;96822.88;5072017;28;20024;-78
2021/08/29 09:44:22;;;;;;;0.77;0.77;;;;;;;26.02;68.67;96809.16;5055110;28;20106;-78
2021/08/29 09:46:57;;;;;;;7.68;0.65;;;;;;;25.87;70.31;96819.47;5029613;28;20025;-78
2021/08/29 09:49:30;;;;;;;1.02;0.55;;;;;;;25.17;75.20;96819.81;5046051;28;20115;-77
2021/08/29 09:51:57;;;;;;;0.65;0.52;;;;;;;24.30;79.33;96819.47;5051849;28;20032;-75
2021/08/29 09:54:34;;;;;;;0.40;0.32;;;;;;;24.43;81.60;96813.25;5035546;28;20043;-75
2021/08/29 09:57:01;;;;;;;4.15;3.08;;;;;;;24.11;81.82;96803.75;5070770;28;20050;-75
2021/08/29 09:59:43;;;;;;;7.50;6.38;;;;;;;23.90;83.94;96812.81;5049559;28;20037;-76
2021/08/29 10:02:17;;;;;;;11.35;7.05;;;;;;;23.51;87.05;96806.91;5038877;28;20495;-77
2021/08/29 10:04:43;;;;;;;23.48;14.07;;;;;;;22.46;93.43;96811.78;5059409;28;20028;-90
2021/08/29 10:07:13;;;;;;;19.20;9.88;;;;;;;22.10;96.56;96810.78;5037864;28;20056;-91
2021/08/29 10:09:39;;;;;;;13.07;9.40;;;;;;;22.26;100.00;96807.06;5036724;28;20025;-87
2021/08/29 10:12:05;;;;;;;14.18;10.02;;;;;;;22.14;99.79;96818.44;5034518;28;20032;-75
2021/08/29 10:14:35;;;;;;;14.85;10.50;;;;;;;21.83;100.00;96808.63;5036901;28;20082;-75
2021/08/29 10:17:02;;;;;;;21.40;11.48;;;;;;;21.91;100.00;96814.88;5050562;28;20094;-77
2021/08/29 10:19:28;;;;;;;27.85;12.70;;;;;;;21.85;100.00;96812.84;5049864;28;20099;-78
2021/08/29 10:21:54;;;;;;;20.08;12.32;;;;;;;22.05;100.00;96797.75;5070686;28;20124;-82
2021/08/29 10:24:21;;;;;;;19.25;12.05;;;;;;;22.43;100.00;96793.06;5051159;28;20120;-81
2021/08/29 10:26:51;;;;;;;18.80;10.98;;;;;;;23.07;97.09;96783.28;5048489;28;20582;-83
2021/08/29 10:29:18;;;;;;;13.85;10.00;;;;;;;23.31;90.81;96779.38;5033987;28;20066;-81
2021/08/29 10:31:49;;;;;;;17.88;9.90;;;;;;;23.50;89.10;96802.50;5035279;28;20037;-81
2021/08/29 10:34:16;;;;;;;12.88;9.90;;;;;;;23.66;87.23;96810.44;5072201;28;20024;-86
2021/08/29 10:36:42;;;;;;;14.52;9.82;;;;;;;23.85;83.99;96814.41;5037815;28;20032;-77
2021/08/29 10:39:08;;;;;;;15.18;10.30;;;;;;;23.81;85.57;96804.94;5037641;28;20025;-76
2021/08/29 10:41:33;;;;;;;16.63;10.20;;;;;;;24.07;87.03;96806.00;5072059;28;20025;-77
2021/08/29 10:43:59;;;;;;;16.58;9.80;;;;;;;24.02;84.07;96800.28;5053769;28;20083;-77
2021/08/29 10:46:25;;;;;;;15.13;9.75;;;;;;;23.78;86.13;96797.94;5037302;28;20032;-76
2021/08/29 10:48:51;;;;;;;13.20;8.60;;;;;;;23.58;84.98;96805.09;5053595;28;20032;-77
2021/08/29 10:51:25;;;;;;;12.23;9.57;;;;;;;22.72;90.39;96810.50;5071278;28;20480;-82
2021/08/29 10:53:52;;;;;;;13.38;9.45;;;;;;;22.69;93.42;96803.56;5036774;28;20443;-83
2021/08/29 10:56:18;;;;;;;15.15;10.27;;;;;;;22.99;93.38;96824.31;5037108;28;20123;-83
2021/08/29 10:58:45;;;;;;;14.93;10.10;;;;;;;23.08;91.87;96814.13;5049985;28;20067;-80
2021/08/29 11:01:36;;;;;;;14.80;10.65;;;;;;;23.10;93.15;96826.56;5033278;28;20036;-80
2021/08/29 11:04:17;;;;;;;187.93;143.63;;;;;;;22.97;93.54;96820.94;5030647;28;20452;-77
2021/08/29 11:06:43;;;;;;;43.10;24.83;;;;;;;22.81;96.83;96809.38;5053278;28;20507;-76
2021/08/29 11:12:22;;;;;;;27.60;17.05;;;;;;;21.91;100.00;96824.91;5075055;28;20027;-76
2021/08/29 11:14:52;;;;;;;25.75;16.30;;;;;;;21.70;100.00;96811.97;5048149;28;20095;-75
2021/08/29 11:17:21;;;;;;;25.40;17.38;;;;;;;21.50;100.00;96810.75;5053735;28;20029;-76
2021/08/29 11:19:49;;;;;;;22.67;15.82;;;;;;;21.50;100.00;96816.19;5024431;28;20036;-85
2021/08/29 11:22:16;;;;;;;29.77;18.00;;;;;;;21.41;100.00;96825.44;5056823;28;20080;-84
2021/08/29 11:24:46;;;;;;;23.48;16.20;;;;;;;21.33;100.00;96825.47;5023947;28;20086;-85
2021/08/29 11:27:33;;;;;;;24.73;16.30;;;;;;;21.12;100.00;96819.81;5037523;28;20037;-84